Time;durP1;ratioP1;P1;durP2;ratioP2;P2;SDS_P1;SDS_P2;PMS_P1;PMS_P2;Temp;Humidity;BMP_temperature;BMP_pressure;BME280_temperature;BME280_humidity;BME280_pressure;Samples;Min_cycle;Max_cycle;Signal;HPM_P1;HPM_P2
2021/01/21 00:01:05;;;;;;;1.98;1.40;;;11.50;79.00;;;;;;4902031;29;20032;-78
2021/01/21 00:03:33;;;;;;;1.58;1.40;;;11.50;79.00;;;;;;4918464;29;20091;-77
2021/01/21 00:06:00;;;;;;;2.22;1.80;;;11.50;79.00;;;;;;4921503;28;20027;-76
2021/01/21 00:08:26;;;;;;;1.55;1.27;;;11.50;79.00;;;;;;4940274;28;20093;-77
2021/01/21 00:10:52;;;;;;;1.58;1.40;;;11.50;79.00;;;;;;4924370;28;20065;-78
2021/01/21 00:13:18;;;;;;;1.67;1.30;;;11.50;79.00;;;;;;4937017;29;20456;-77
2021/01/21 00:15:44;;;;;;;1.60;1.40;;;11.50;79.60;;;;;;4931534;28;20039;-78
2021/01/21 00:18:09;;;;;;;1.73;1.35;;;11.50;79.00;;;;;;4937093;28;20034;-77
2021/01/21 00:20:35;;;;;;;2.08;1.35;;;11.50;79.00;;;;;;4959343;28;20109;-78
2021/01/21 00:23:01;;;;;;;1.40;1.30;;;11.60;79.00;;;;;;4925481;28;20129;-77
2021/01/21 00:25:27;;;;;;;1.85;1.40;;;11.60;79.00;;;;;;4957898;28;20049;-78
2021/01/21 00:27:53;;;;;;;1.52;1.42;;;11.50;78.90;;;;;;4956017;28;20026;-78
2021/01/21 00:30:19;;;;;;;1.42;1.30;;;11.50;78.90;;;;;;4939310;28;20034;-78
2021/01/21 00:32:45;;;;;;;1.63;1.42;;;11.50;79.00;;;;;;4936931;29;20054;-78
2021/01/21 00:35:13;;;;;;;2.90;1.48;;;11.50;78.90;;;;;;4938636;28;20034;-77
2021/01/21 00:37:39;;;;;;;2.20;1.35;;;11.50;79.00;;;;;;4945061;28;20030;-77
2021/01/21 00:40:05;;;;;;;2.67;1.50;;;11.50;78.90;;;;;;4956890;28;20039;-77
2021/01/21 00:42:32;;;;;;;2.28;1.35;;;11.50;78.90;;;;;;4939518;28;20031;-77
2021/01/21 00:44:58;;;;;;;1.95;1.30;;;11.50;78.90;;;;;;4937444;29;20035;-78
2021/01/21 00:47:24;;;;;;;1.70;1.45;;;11.60;79.00;;;;;;4942089;28;20035;-78
2021/01/21 00:49:50;;;;;;;2.17;1.45;;;11.50;78.90;;;;;;4959773;28;20364;-77
2021/01/21 00:52:16;;;;;;;2.03;1.40;;;11.50;78.90;;;;;;4939692;28;20047;-79
2021/01/21 00:54:41;;;;;;;1.33;1.23;;;11.50;78.90;;;;;;4939916;28;20037;-77
2021/01/21 00:57:08;;;;;;;1.40;1.27;;;11.50;78.90;;;;;;4924430;28;20786;-78
2021/01/21 00:59:34;;;;;;;1.40;1.30;;;11.60;79.00;;;;;;4955638;28;20079;-78
2021/01/21 01:02:01;;;;;;;1.27;1.17;;;11.60;79.00;;;;;;4951003;28;20031;-77
2021/01/21 01:04:28;;;;;;;1.52;1.10;;;11.60;79.00;;;;;;4939407;28;20041;-77
2021/01/21 01:06:54;;;;;;;1.38;1.27;;;11.50;79.00;;;;;;4936643;29;20098;-78
2021/01/21 01:09:20;;;;;;;1.35;1.13;;;11.60;79.00;;;;;;4918009;29;20389;-77
2021/01/21 01:11:47;;;;;;;1.27;1.10;;;11.50;78.90;;;;;;4936575;29;20058;-78
2021/01/21 01:14:13;;;;;;;1.40;1.27;;;11.50;78.90;;;;;;4931727;29;20108;-78
2021/01/21 01:16:40;;;;;;;1.30;1.20;;;11.50;78.90;;;;;;4922432;29;20075;-77
2021/01/21 01:19:08;;;;;;;2.17;1.30;;;11.60;79.00;;;;;;4925617;29;20388;-78
2021/01/21 01:21:34;;;;;;;1.60;1.23;;;11.60;79.00;;;;;;4936510;29;20027;-77
2021/01/21 01:24:00;;;;;;;1.20;1.10;;;11.60;79.00;;;;;;4932935;29;20042;-77
2021/01/21 01:26:26;;;;;;;1.20;1.10;;;11.50;78.90;;;;;;4913312;29;20377;-78
2021/01/21 01:29:00;;;;;;;2.10;1.40;;;11.60;78.90;;;;;;4933501;29;20027;-78
2021/01/21 01:31:26;;;;;;;1.77;1.20;;;11.60;78.90;;;;;;4945874;29;20031;-78
2021/01/21 01:33:52;;;;;;;1.65;1.20;;;11.60;78.90;;;;;;4908572;29;20035;-78
2021/01/21 01:36:19;;;;;;;1.35;1.20;;;11.50;78.80;;;;;;4929979;29;20381;-78
2021/01/21 01:38:45;;;;;;;1.48;1.10;;;11.60;78.90;;;;;;4951122;29;20038;-79
2021/01/21 01:41:37;;;;;;;1.33;1.23;;;11.60;78.90;;;;;;4923251;29;20055;-78
2021/01/21 01:44:03;;;;;;;1.90;1.40;;;11.60;78.80;;;;;;4937302;29;20383;-78
2021/01/21 01:46:31;;;;;;;1.73;1.38;;;11.60;78.80;;;;;;4930837;29;20031;-78
2021/01/21 01:48:58;;;;;;;1.95;1.30;;;11.60;78.90;;;;;;4945388;29;20059;-78
2021/01/21 01:51:29;;;;;;;1.40;1.20;;;11.60;78.90;;;;;;4936905;29;20027;-78
2021/01/21 01:53:57;;;;;;;2.25;1.20;;;11.60;78.90;;;;;;4946696;29;20038;-78
2021/01/21 01:56:26;;;;;;;1.85;1.20;;;11.60;78.80;;;;;;4929603;29;20105;-77
2021/01/21 01:59:01;;;;;;;1.45;1.35;;;11.60;78.80;;;;;;4918250;29;20036;-78
2021/01/21 02:01:39;;;;;;;1.70;1.40;;;11.60;78.80;;;;;;4914794;29;20032;-78
2021/01/21 02:04:13;;;;;;;1.70;1.33;;;11.60;78.80;;;;;;4908628;29;20123;-77
2021/01/21 02:07:06;;;;;;;1.63;1.33;;;11.60;78.80;;;;;;4908168;29;20134;-77
2021/01/21 02:09:42;;;;;;;2.03;1.30;;;11.60;78.70;;;;;;4940360;29;20118;-77
2021/01/21 02:12:49;;;;;;;1.85;1.30;;;11.60;78.80;;;;;;4939626;29;20031;-79
2021/01/21 02:15:40;;;;;;;1.83;1.33;;;11.60;78.90;;;;;;4917526;29;20039;-78
2021/01/21 02:18:15;;;;;;;3.80;1.58;;;11.60;78.80;;;;;;4955408;29;20396;-78
2021/01/21 02:21:19;;;;;;;2.55;1.40;;;11.70;78.80;;;;;;4939103;29;20038;-79
2021/01/21 02:24:06;;;;;;;2.65;1.27;;;11.70;79.00;;;;;;4935401;29;20039;-78
2021/01/21 02:26:58;;;;;;;1.30;1.20;;;11.70;78.90;;;;;;4955342;29;20066;-79
2021/01/21 02:29:32;;;;;;;1.33;1.20;;;11.60;78.90;;;;;;4928250;29;20071;-78
2021/01/21 02:32:10;;;;;;;1.30;1.20;;;11.70;78.90;;;;;;4954667;29;20117;-79
2021/01/21 02:35:01;;;;;;;;;;;11.60;78.80;;;;;;4941639;29;20032;-78
2021/01/21 02:37:28;;;;;;;1.40;1.13;;;11.70;78.80;;;;;;4935275;29;19911;-78
2021/01/21 02:40:02;;;;;;;2.13;1.40;;;11.70;78.70;;;;;;4930585;29;20371;-78
2021/01/21 02:42:48;;;;;;;;;;;11.60;78.80;;;;;;4956835;28;20039;-78
2021/01/21 02:45:18;;;;;;;1.17;1.05;;;11.70;78.90;;;;;;4955249;29;19915;-77
2021/01/21 02:47:48;;;;;;;1.77;1.38;;;11.70;78.70;;;;;;4954646;29;20027;-77
2021/01/21 02:50:14;;;;;;;1.98;1.25;;;11.70;78.80;;;;;;4939107;29;20038;-78
2021/01/21 02:52:52;;;;;;;1.23;1.13;;;11.70;78.90;;;;;;4938439;29;20361;-80
2021/01/21 02:55:25;;;;;;;1.52;1.30;;;11.70;79.00;;;;;;4939107;29;20031;-78
2021/01/21 02:58:11;;;;;;;1.40;1.10;;;11.70;79.00;;;;;;4954055;29;20019;-78
2021/01/21 03:00:38;;;;;;;1.30;1.20;;;11.70;79.00;;;;;;4954731;29;20106;-78
2021/01/21 03:03:16;;;;;;;1.88;1.42;;;11.80;79.00;;;;;;4956049;29;20039;-79
2021/01/21 03:05:50;;;;;;;1.63;1.20;;;11.80;79.10;;;;;;4954641;28;20027;-78
2021/01/21 03:08:16;;;;;;;1.50;1.30;;;11.80;79.00;;;;;;4908124;29;20052;-78
2021/01/21 03:10:42;;;;;;;1.42;1.23;;;11.80;79.00;;;;;;4919305;29;20083;-78
2021/01/21 03:13:08;;;;;;;1.35;1.20;;;11.80;79.00;;;;;;4919587;29;20028;-79
2021/01/21 03:15:43;;;;;;;2.45;1.20;;;11.80;78.90;;;;;;4917862;29;20042;-80
2021/01/21 03:18:13;;;;;;;1.10;1.10;;;11.80;78.90;;;;;;4904902;29;20030;-79
2021/01/21 03:20:39;;;;;;;1.52;1.20;;;11.80;78.90;;;;;;4934962;29;20032;-78
2021/01/21 03:23:07;;;;;;;1.38;1.20;;;11.80;78.90;;;;;;4918111;29;20079;-77
2021/01/21 03:25:37;;;;;;;1.88;1.30;;;11.80;78.80;;;;;;4934489;29;20127;-78
2021/01/21 03:28:08;;;;;;;1.73;1.40;;;11.80;78.80;;;;;;4919685;29;20042;-78
2021/01/21 03:30:36;;;;;;;2.20;1.27;;;11.80;78.80;;;;;;4919081;29;20472;-78
2021/01/21 03:33:03;;;;;;;1.65;1.10;;;11.90;78.90;;;;;;4915817;29;20028;-79
2021/01/21 03:35:36;;;;;;;1.20;1.10;;;11.90;78.90;;;;;;4931340;29;20047;-78
2021/01/21 03:38:02;;;;;;;1.10;1.00;;;11.90;78.80;;;;;;4926782;29;20032;-78
2021/01/21 03:40:31;;;;;;;1.48;1.25;;;11.90;78.80;;;;;;4929533;29;20133;-79
2021/01/21 03:42:58;;;;;;;1.85;1.30;;;11.90;78.80;;;;;;4902198;29;20035;-79
2021/01/21 03:45:43;;;;;;;1.25;1.15;;;11.90;78.90;;;;;;4921070;29;20451;-78
2021/01/21 03:48:12;;;;;;;1.38;1.27;;;11.90;78.80;;;;;;4934311;29;20027;-79
2021/01/21 03:51:07;;;;;;;1.30;1.20;;;11.90;78.80;;;;;;4906675;29;20505;-78
2021/01/21 03:53:33;;;;;;;1.65;1.20;;;11.90;78.80;;;;;;4898399;29;20032;-77
2021/01/21 03:56:17;;;;;;;1.42;1.10;;;11.90;78.80;;;;;;4921165;29;20134;-78
2021/01/21 03:58:43;;;;;;;1.40;1.30;;;11.90;78.80;;;;;;4907453;29;20086;-78
2021/01/21 04:01:16;;;;;;;1.90;1.13;;;11.90;78.80;;;;;;4919309;29;20035;-78
2021/01/21 04:03:43;;;;;;;1.10;1.10;;;12.00;78.90;;;;;;4918625;29;20040;-79
2021/01/21 04:06:10;;;;;;;1.20;1.10;;;12.00;78.90;;;;;;4920496;28;20016;-78
2021/01/21 04:08:36;;;;;;;1.00;1.00;;;12.00;78.90;;;;;;4943003;28;20035;-78
2021/01/21 04:11:21;;;;;;;2.15;1.10;;;12.00;78.90;;;;;;4957008;28;20534;-78
2021/01/21 04:13:53;;;;;;;1.33;1.20;;;12.00;78.80;;;;;;4942630;28;20126;-78
2021/01/21 04:16:21;;;;;;;1.10;1.00;;;12.00;78.90;;;;;;4925532;28;20034;-78
2021/01/21 04:18:47;;;;;;;1.25;1.10;;;12.00;78.80;;;;;;4939474;28;20138;-78
2021/01/21 04:21:16;;;;;;;1.13;1.05;;;12.10;78.90;;;;;;4948710;28;20035;-78
2021/01/21 04:23:43;;;;;;;1.10;1.00;;;12.00;78.80;;;;;;4925120;28;20035;-78
2021/01/21 04:26:16;;;;;;;1.30;1.20;;;12.00;78.80;;;;;;4954565;28;20039;-78
2021/01/21 04:28:48;;;;;;;1.00;1.00;;;12.10;78.90;;;;;;4941144;28;20102;-77
2021/01/21 04:31:13;;;;;;;1.00;0.90;;;12.10;78.90;;;;;;4945534;28;20022;-77
2021/01/21 04:33:39;;;;;;;1.45;1.17;;;12.10;78.90;;;;;;4944871;29;20032;-77
2021/01/21 04:36:06;;;;;;;1.05;1.00;;;12.10;78.90;;;;;;4953534;28;20071;-78
2021/01/21 04:38:38;;;;;;;1.85;1.15;;;12.10;78.90;;;;;;4940766;28;20038;-77
2021/01/21 04:41:09;;;;;;;1.00;1.00;;;12.10;78.90;;;;;;4925266;28;20031;-77
2021/01/21 04:43:50;;;;;;;1.40;0.93;;;12.10;78.90;;;;;;4944793;28;20043;-77
2021/01/21 04:46:36;;;;;;;1.25;1.02;;;12.10;78.80;;;;;;4938797;29;20102;-77
2021/01/21 04:49:03;;;;;;;0.93;0.90;;;12.10;78.80;;;;;;4932424;28;20034;-77
2021/01/21 04:51:30;;;;;;;2.05;0.90;;;12.10;78.90;;;;;;4937374;28;20103;-77
2021/01/21 04:54:15;;;;;;;0.82;0.75;;;12.10;78.90;;;;;;4947586;28;20531;-77
2021/01/21 04:56:54;;;;;;;0.90;0.80;;;12.10;78.80;;;;;;4941492;28;20113;-77
2021/01/21 04:59:53;;;;;;;0.80;0.80;;;12.10;78.80;;;;;;4957848;28;20121;-78
2021/01/21 05:02:38;;;;;;;0.80;0.80;;;12.10;78.80;;;;;;4957233;28;20039;-78
2021/01/21 05:05:22;;;;;;;1.17;0.90;;;12.10;78.80;;;;;;4946569;28;20106;-78
2021/01/21 05:07:49;;;;;;;1.23;1.02;;;12.10;78.80;;;;;;4943832;28;20047;-78
2021/01/21 05:10:23;;;;;;;1.20;0.80;;;12.00;79.40;;;;;;4946892;28;20089;-77
2021/01/21 05:12:49;;;;;;;1.85;0.90;;;12.10;78.80;;;;;;4928232;28;20034;-78
2021/01/21 05:15:53;;;;;;;0.80;0.80;;;12.00;78.70;;;;;;4887455;29;20036;-79
2021/01/21 05:18:36;;;;;;;1.48;0.90;;;12.00;78.70;;;;;;4878293;29;20080;-78
2021/01/21 05:21:39;;;;;;;1.60;0.90;;;12.00;78.70;;;;;;4905717;29;20127;-79
2021/01/21 05:24:31;;;;;;;0.80;0.80;;;12.00;78.70;;;;;;4938969;28;20043;-78
2021/01/21 05:27:23;;;;;;;0.73;0.70;;;12.00;78.80;;;;;;4946734;28;20034;-78
2021/01/21 05:30:15;;;;;;;1.65;0.82;;;11.90;78.70;;;;;;4966259;28;20038;-79
2021/01/21 05:32:40;;;;;;;1.88;0.75;;;11.90;78.70;;;;;;4976230;28;20478;-78
2021/01/21 05:35:20;;;;;;;1.23;0.80;;;11.90;78.80;;;;;;4926509;28;20078;-78
2021/01/21 05:37:54;;;;;;;1.65;0.90;;;11.90;78.80;;;;;;4943324;28;20117;-78
2021/01/21 05:40:52;;;;;;;0.93;0.80;;;11.80;78.80;;;;;;4962375;28;20039;-78
2021/01/21 05:43:37;;;;;;;1.00;0.80;;;11.80;78.70;;;;;;4954518;28;20054;-77
2021/01/21 05:46:09;;;;;;;0.80;0.80;;;11.80;78.70;;;;;;4958756;28;20031;-78
2021/01/21 05:48:37;;;;;;;1.83;0.90;;;11.70;78.70;;;;;;4927057;28;20042;-79
2021/01/21 05:51:05;;;;;;;1.17;0.70;;;11.70;78.70;;;;;;4957687;28;20394;-78
2021/01/21 05:53:32;;;;;;;1.17;0.90;;;11.70;78.70;;;;;;4929724;29;20047;-78
2021/01/21 05:56:01;;;;;;;1.63;0.98;;;11.70;78.70;;;;;;4943214;28;20093;-77
2021/01/21 05:58:45;;;;;;;1.40;0.80;;;11.60;78.60;;;;;;4955785;28;20078;-76
2021/01/21 06:01:12;;;;;;;0.77;0.77;;;11.70;78.70;;;;;;4961671;28;20494;-75
2021/01/21 06:03:43;;;;;;;1.13;0.90;;;11.60;78.60;;;;;;4937129;29;20039;-75
2021/01/21 06:06:28;;;;;;;1.40;1.02;;;11.60;78.60;;;;;;4970563;28;20137;-75
2021/01/21 06:08:56;;;;;;;0.90;0.77;;;11.60;78.50;;;;;;4941457;28;20483;-75
2021/01/21 06:11:22;;;;;;;1.00;0.77;;;11.50;78.50;;;;;;4962101;28;20053;-77
2021/01/21 06:13:48;;;;;;;2.08;1.00;;;11.50;78.50;;;;;;4956111;28;20042;-76
2021/01/21 06:16:15;;;;;;;0.80;0.80;;;11.50;78.60;;;;;;4941754;28;20026;-76
2021/01/21 06:18:41;;;;;;;2.03;0.90;;;11.50;78.60;;;;;;4972197;28;20034;-76
2021/01/21 06:21:32;;;;;;;1.67;1.08;;;11.50;78.60;;;;;;4943197;28;20403;-75
2021/01/21 06:24:18;;;;;;;1.65;0.90;;;11.40;78.50;;;;;;4946580;28;20486;-75
2021/01/21 06:26:55;;;;;;;2.17;1.10;;;11.40;78.50;;;;;;4958113;28;20034;-75
2021/01/21 06:29:25;;;;;;;1.17;0.88;;;11.40;78.50;;;;;;4942471;28;20099;-75
2021/01/21 06:31:51;;;;;;;0.88;0.88;;;11.40;78.50;;;;;;4942615;28;20038;-75
2021/01/21 06:34:39;;;;;;;2.95;1.30;;;11.30;78.50;;;;;;4958076;28;20031;-75
2021/01/21 06:37:14;;;;;;;1.85;1.30;;;11.30;78.50;;;;;;4958121;28;20031;-75
2021/01/21 06:39:52;;;;;;;0.90;0.90;;;11.30;78.50;;;;;;4942498;28;20027;-75
2021/01/21 06:42:29;;;;;;;1.60;1.00;;;11.20;78.50;;;;;;4958040;28;20038;-76
2021/01/21 06:44:56;;;;;;;1.90;1.00;;;11.20;78.50;;;;;;4946976;28;20027;-75
2021/01/21 06:47:24;;;;;;;1.83;1.00;;;11.20;78.50;;;;;;4940499;28;20388;-74
2021/01/21 06:49:57;;;;;;;1.38;1.10;;;11.20;78.50;;;;;;4950220;29;20062;-76
2021/01/21 06:52:25;;;;;;;1.88;1.00;;;11.20;78.50;;;;;;4954492;28;20043;-74
2021/01/21 06:54:52;;;;;;;1.75;1.05;;;11.10;78.40;;;;;;4955090;28;20030;-76
2021/01/21 06:57:33;;;;;;;1.75;1.00;;;11.10;78.40;;;;;;4968299;28;20029;-75
2021/01/21 07:00:00;;;;;;;0.95;0.93;;;11.10;78.50;;;;;;4952315;28;20027;-76
2021/01/21 07:02:46;;;;;;;2.55;0.90;;;11.10;78.40;;;;;;4926874;28;20070;-75
2021/01/21 07:05:13;;;;;;;2.03;0.90;;;11.00;78.50;;;;;;4937159;28;20027;-79
2021/01/21 07:07:58;;;;;;;1.20;0.98;;;11.00;78.40;;;;;;4940706;28;20074;-76
2021/01/21 07:10:35;;;;;;;1.95;1.38;;;11.00;78.50;;;;;;4957884;28;20132;-76
2021/01/21 07:13:16;;;;;;;2.17;1.30;;;11.00;78.40;;;;;;4962113;28;20027;-77
2021/01/21 07:15:57;;;;;;;1.00;0.90;;;10.90;78.30;;;;;;4959033;28;20128;-76
2021/01/21 07:18:30;;;;;;;1.73;1.13;;;10.90;78.30;;;;;;4951375;28;20023;-75
2021/01/21 07:21:22;;;;;;;2.63;1.20;;;10.80;78.30;;;;;;4957064;28;20038;-75
2021/01/21 07:23:51;;;;;;;3.75;1.20;;;10.80;78.40;;;;;;4939622;28;20038;-75
2021/01/21 07:26:34;;;;;;;2.30;1.30;;;10.80;78.20;;;;;;4956336;28;20538;-76
2021/01/21 07:29:04;;;;;;;0.98;0.98;;;10.80;78.40;;;;;;4956820;28;20074;-74
2021/01/21 07:31:52;;;;;;;1.73;1.08;;;10.80;78.30;;;;;;4974031;28;20031;-76
2021/01/21 07:34:37;;;;;;;2.53;1.20;;;10.70;78.30;;;;;;4956432;28;20046;-75
2021/01/21 07:37:28;;;;;;;1.45;1.10;;;10.70;78.30;;;;;;4955713;28;20031;-76
2021/01/21 07:39:59;;;;;;;3.15;1.27;;;10.70;78.20;;;;;;4955121;28;20467;-77
2021/01/21 07:42:37;;;;;;;3.38;1.20;;;10.70;78.20;;;;;;4943667;28;20030;-76
2021/01/21 07:45:04;;;;;;;1.08;0.98;;;10.60;78.20;;;;;;4974091;28;20027;-77
2021/01/21 07:47:31;;;;;;;1.67;1.13;;;10.60;78.20;;;;;;4955141;28;20034;-76
2021/01/21 07:50:16;;;;;;;1.27;1.17;;;10.60;78.20;;;;;;4955975;28;20150;-77
2021/01/21 07:52:42;;;;;;;1.93;1.10;;;10.60;78.30;;;;;;4955895;28;20046;-75
2021/01/21 07:55:08;;;;;;;1.35;1.00;;;10.60;78.20;;;;;;4956978;28;20301;-75
2021/01/21 07:57:34;;;;;;;1.92;1.30;;;10.50;78.10;;;;;;4951282;28;20114;-78
2021/01/21 08:00:03;;;;;;;2.20;1.15;;;10.50;78.10;;;;;;4935240;28;20062;-77
2021/01/21 08:02:45;;;;;;;2.45;1.23;;;10.50;78.10;;;;;;4954387;28;20488;-74
2021/01/21 08:05:12;;;;;;;1.13;1.00;;;10.50;78.10;;;;;;4950390;28;20498;-75
2021/01/21 08:07:57;;;;;;;1.88;1.27;;;10.40;78.00;;;;;;4929848;29;20083;-75
2021/01/21 08:10:25;;;;;;;1.58;1.00;;;10.40;78.10;;;;;;4932128;29;20119;-75
2021/01/21 08:12:58;;;;;;;1.25;0.90;;;10.40;78.00;;;;;;4927715;29;20031;-77
2021/01/21 08:15:25;;;;;;;2.33;1.38;;;10.40;78.10;;;;;;4924196;29;20095;-76
2021/01/21 08:17:52;;;;;;;1.25;1.10;;;10.30;78.00;;;;;;4933803;29;20114;-75
2021/01/21 08:20:23;;;;;;;2.15;1.13;;;10.30;78.00;;;;;;4914885;29;20437;-76
2021/01/21 08:23:15;;;;;;;1.88;1.15;;;10.30;78.10;;;;;;4929819;29;20023;-77
2021/01/21 08:25:45;;;;;;;1.70;1.20;;;10.30;78.10;;;;;;4933733;29;20031;-75
2021/01/21 08:28:15;;;;;;;1.65;1.05;;;10.30;78.00;;;;;;4934037;29;20027;-75
2021/01/21 08:30:41;;;;;;;1.58;1.00;;;10.30;78.10;;;;;;4931953;29;20023;-76
2021/01/21 08:33:21;;;;;;;2.78;1.35;;;10.20;78.00;;;;;;4932719;29;20046;-76
2021/01/21 08:35:46;;;;;;;3.35;1.33;;;10.20;78.10;;;;;;4913419;29;20036;-75
2021/01/21 08:38:14;;;;;;;2.47;1.60;;;10.20;78.00;;;;;;4931032;29;20412;-77
2021/01/21 08:40:42;;;;;;;1.33;1.00;;;10.20;78.10;;;;;;4932711;29;20070;-76
2021/01/21 08:43:08;;;;;;;3.17;1.33;;;10.20;78.10;;;;;;4916801;29;20036;-75
2021/01/21 08:45:35;;;;;;;3.78;1.60;;;10.10;78.00;;;;;;4917074;29;20036;-76
2021/01/21 08:48:01;;;;;;;2.95;1.30;;;10.10;78.00;;;;;;4933360;29;20027;-75
2021/01/21 08:50:38;;;;;;;2.03;1.45;;;10.10;78.00;;;;;;4929276;29;20507;-76
2021/01/21 08:53:09;;;;;;;2.78;1.30;;;10.10;78.10;;;;;;4899765;29;20057;-78
2021/01/21 08:55:36;;;;;;;2.50;1.27;;;10.10;78.10;;;;;;4941672;29;20047;-75
2021/01/21 08:58:03;;;;;;;2.72;1.40;;;10.00;78.00;;;;;;4928590;29;20079;-79
2021/01/21 09:00:29;;;;;;;1.40;1.20;;;10.00;78.00;;;;;;4915303;29;20032;-76
2021/01/21 09:02:56;;;;;;;1.85;1.10;;;10.00;78.10;;;;;;4917281;29;20031;-76
2021/01/21 09:05:23;;;;;;;2.70;1.20;;;10.00;78.00;;;;;;4935730;29;20032;-77
2021/01/21 09:07:50;;;;;;;1.88;1.45;;;10.00;78.00;;;;;;4949990;28;20059;-75
2021/01/21 09:10:16;;;;;;;2.10;1.10;;;10.00;78.10;;;;;;4938515;28;20185;-76
2021/01/21 09:12:42;;;;;;;1.45;1.05;;;10.00;78.10;;;;;;4940612;28;20042;-75
2021/01/21 09:15:09;;;;;;;2.47;1.10;;;9.90;78.00;;;;;;4938767;28;20038;-76
2021/01/21 09:17:37;;;;;;;1.55;1.15;;;9.90;78.00;;;;;;4972984;28;20031;-75
2021/01/21 09:20:26;;;;;;;1.20;1.05;;;9.90;78.00;;;;;;4938675;28;20157;-76
2021/01/21 09:22:52;;;;;;;1.88;1.10;;;9.90;78.10;;;;;;4947890;28;20117;-75
2021/01/21 09:25:27;;;;;;;2.72;1.40;;;9.90;78.00;;;;;;4938459;28;20529;-77
2021/01/21 09:27:55;;;;;;;2.30;1.10;;;9.90;78.10;;;;;;4940031;28;20031;-75
2021/01/21 09:30:22;;;;;;;3.42;1.33;;;9.90;78.10;;;;;;4937695;28;20490;-76
2021/01/21 09:32:48;;;;;;;1.40;1.20;;;9.90;78.10;;;;;;4961400;28;20080;-76
2021/01/21 09:35:14;;;;;;;2.38;1.30;;;9.90;78.10;;;;;;4936279;28;20035;-78
2021/01/21 09:37:42;;;;;;;2.55;1.20;;;9.90;78.20;;;;;;4935983;29;20391;-76
2021/01/21 09:40:22;;;;;;;2.30;1.20;;;9.90;78.20;;;;;;4956600;28;20023;-78
2021/01/21 09:42:48;;;;;;;1.63;1.20;;;9.90;78.20;;;;;;4950608;28;20041;-84
2021/01/21 09:45:15;;;;;;;2.67;1.30;;;9.90;78.20;;;;;;4953317;28;20022;-78
2021/01/21 09:47:41;;;;;;;2.53;1.50;;;9.80;78.10;;;;;;4953594;28;20027;-77
2021/01/21 09:50:09;;;;;;;2.78;1.20;;;9.80;78.10;;;;;;4959333;28;20479;-75
2021/01/21 09:52:35;;;;;;;1.40;1.08;;;9.80;78.20;;;;;;4954985;28;20035;-78
2021/01/21 09:55:02;;;;;;;3.90;1.50;;;9.80;78.10;;;;;;4943208;28;20030;-78
2021/01/21 09:57:29;;;;;;;2.55;1.35;;;9.80;78.20;;;;;;4939864;28;20154;-81
2021/01/21 09:59:54;;;;;;;2.38;1.23;;;9.90;78.20;;;;;;4956108;28;20512;-79
2021/01/21 10:02:22;;;;;;;2.80;1.33;;;9.90;78.30;;;;;;4924617;28;20086;-78
2021/01/21 10:04:47;;;;;;;1.48;1.27;;;9.80;78.20;;;;;;4927860;28;20792;-79
2021/01/21 10:07:13;;;;;;;3.65;1.20;;;9.80;78.20;;;;;;4932241;28;20031;-77
2021/01/21 10:09:39;;;;;;;3.50;1.45;;;9.80;78.20;;;;;;4963572;28;20034;-77
2021/01/21 10:12:05;;;;;;;3.75;1.33;;;9.80;78.20;;;;;;4928104;28;20037;-77
2021/01/21 10:14:32;;;;;;;2.75;1.20;;;9.90;78.30;;;;;;4957447;28;20174;-77
2021/01/21 10:16:58;;;;;;;3.20;1.42;;;9.80;78.20;;;;;;4948244;28;20031;-77
2021/01/21 10:19:24;;;;;;;3.88;1.40;;;9.80;78.30;;;;;;4976693;28;20026;-76
2021/01/21 10:21:50;;;;;;;2.10;1.30;;;9.80;78.30;;;;;;4952333;28;20053;-77
2021/01/21 10:24:16;;;;;;;2.42;1.25;;;9.90;78.30;;;;;;4965328;28;20038;-76
2021/01/21 10:26:42;;;;;;;3.47;1.42;;;9.90;78.30;;;;;;4940410;28;20038;-77
2021/01/21 10:29:08;;;;;;;2.42;1.58;;;9.80;78.30;;;;;;4957685;28;20061;-78
2021/01/21 10:31:35;;;;;;;4.05;1.40;;;9.90;78.40;;;;;;4956275;28;20382;-78
2021/01/21 10:34:03;;;;;;;3.85;1.35;;;9.90;78.30;;;;;;4934296;28;20058;-79
2021/01/21 10:36:29;;;;;;;3.65;1.45;;;9.90;78.30;;;;;;4941294;28;20042;-78
2021/01/21 10:38:55;;;;;;;2.17;1.25;;;9.90;78.30;;;;;;4946438;28;20467;-78
2021/01/21 10:41:21;;;;;;;2.95;1.40;;;9.90;78.40;;;;;;4958840;28;20372;-79
2021/01/21 10:43:47;;;;;;;1.67;1.30;;;9.90;78.40;;;;;;4954688;28;20070;-78
2021/01/21 10:46:13;;;;;;;1.40;1.30;;;9.90;78.40;;;;;;4957924;28;20452;-77
2021/01/21 10:48:39;;;;;;;2.38;1.15;;;9.90;78.40;;;;;;4940721;28;20030;-78
2021/01/21 10:51:04;;;;;;;1.83;1.25;;;9.90;78.40;;;;;;4939381;28;20043;-79
2021/01/21 10:53:30;;;;;;;2.78;1.23;;;10.00;78.40;;;;;;4942156;28;20059;-76
2021/01/21 10:55:56;;;;;;;2.17;1.20;;;10.00;78.50;;;;;;4953325;28;20102;-76
2021/01/21 10:58:21;;;;;;;1.63;1.40;;;10.00;78.50;;;;;;4940197;28;20472;-76
2021/01/21 11:00:47;;;;;;;2.35;1.30;;;10.00;78.50;;;;;;4936375;29;20069;-79
2021/01/21 11:03:14;;;;;;;1.85;1.05;;;10.00;78.50;;;;;;4957855;28;20034;-79
2021/01/21 11:05:41;;;;;;;2.08;1.40;;;10.00;78.50;;;;;;4953797;28;20479;-78
2021/01/21 11:08:07;;;;;;;1.90;1.20;;;10.10;78.50;;;;;;4948788;28;20042;-76
2021/01/21 11:10:34;;;;;;;2.50;1.20;;;10.10;78.50;;;;;;4943278;28;20101;-76
2021/01/21 11:13:00;;;;;;;3.35;1.48;;;10.10;78.50;;;;;;4960511;28;20180;-80
2021/01/21 11:15:26;;;;;;;2.05;1.27;;;10.10;78.50;;;;;;4923483;28;20035;-80
2021/01/21 11:17:52;;;;;;;1.38;1.13;;;10.10;78.50;;;;;;4944256;28;20476;-80
2021/01/21 11:20:18;;;;;;;1.67;1.20;;;10.10;78.50;;;;;;4940729;28;20038;-79
2021/01/21 11:22:44;;;;;;;3.92;1.30;;;10.10;78.50;;;;;;4955717;28;20042;-79
2021/01/21 11:25:10;;;;;;;3.58;1.30;;;10.10;78.50;;;;;;4939969;28;20121;-80
2021/01/21 11:27:37;;;;;;;2.55;1.20;;;10.20;78.60;;;;;;4939251;28;20038;-80
2021/01/21 11:30:05;;;;;;;1.65;1.33;;;10.20;78.60;;;;;;4940664;28;20045;-82
2021/01/21 11:32:31;;;;;;;2.90;1.20;;;10.20;78.60;;;;;;4955782;28;20027;-79
2021/01/21 11:34:56;;;;;;;1.70;1.30;;;10.20;78.50;;;;;;4922332;28;20050;-82
2021/01/21 11:37:22;;;;;;;2.50;1.40;;;10.20;78.50;;;;;;4923324;28;20399;-78
2021/01/21 11:39:49;;;;;;;2.10;1.30;;;10.20;78.50;;;;;;4944974;28;20094;-76
2021/01/21 11:42:15;;;;;;;1.55;1.17;;;10.20;78.50;;;;;;4956746;28;20066;-81
2021/01/21 11:44:40;;;;;;;3.30;1.52;;;10.20;78.50;;;;;;4944101;28;20486;-80
2021/01/21 11:47:06;;;;;;;1.67;1.30;;;10.30;78.50;;;;;;4937546;28;20165;-79
2021/01/21 11:49:32;;;;;;;1.75;1.13;;;10.30;78.50;;;;;;4940337;28;20027;-78
2021/01/21 11:51:58;;;;;;;4.50;1.48;;;10.30;78.50;;;;;;4959947;28;20110;-78
2021/01/21 11:54:25;;;;;;;1.90;1.05;;;10.30;78.50;;;;;;4937839;29;20031;-77
2021/01/21 11:56:51;;;;;;;1.30;1.10;;;10.40;78.50;;;;;;4959396;28;20031;-78
2021/01/21 11:59:17;;;;;;;1.95;1.50;;;10.40;78.50;;;;;;4951923;28;20030;-79
2021/01/21 12:01:42;;;;;;;1.30;1.20;;;10.30;78.40;;;;;;4959194;28;20039;-78
2021/01/21 12:04:09;;;;;;;2.33;1.35;;;10.30;78.40;;;;;;4934626;28;20085;-78
2021/01/21 12:06:35;;;;;;;1.90;1.40;;;10.40;78.40;;;;;;4972910;28;20468;-79
2021/01/21 12:09:02;;;;;;;2.70;1.30;;;10.40;78.40;;;;;;4915382;29;20052;-77
2021/01/21 12:11:29;;;;;;;2.25;1.20;;;10.40;78.40;;;;;;4937535;29;20098;-76
2021/01/21 12:13:55;;;;;;;1.98;1.40;;;10.40;78.40;;;;;;4929611;29;20042;-76
2021/01/21 12:16:22;;;;;;;1.77;1.15;;;10.40;78.30;;;;;;4929159;29;20027;-78
2021/01/21 12:18:48;;;;;;;1.40;1.30;;;10.40;78.40;;;;;;4954556;28;20027;-78
2021/01/21 12:21:13;;;;;;;1.65;1.30;;;10.50;78.40;;;;;;4934086;29;20034;-77
2021/01/21 12:23:39;;;;;;;1.85;1.40;;;10.50;78.40;;;;;;4947448;29;20122;-77
2021/01/21 12:26:08;;;;;;;3.55;1.42;;;10.50;78.40;;;;;;4908948;28;20027;-77
2021/01/21 12:28:34;;;;;;;2.53;1.42;;;10.50;78.30;;;;;;4956267;28;20024;-77
2021/01/21 12:31:03;;;;;;;2.38;1.45;;;10.50;78.30;;;;;;4951776;28;20546;-79
2021/01/21 12:33:30;;;;;;;3.45;1.50;;;10.50;78.30;;;;;;4950251;28;20699;-80
2021/01/21 12:35:56;;;;;;;2.60;1.50;;;10.60;78.30;;;;;;4935239;29;20376;-78
2021/01/21 12:38:22;;;;;;;1.92;1.40;;;10.60;78.40;;;;;;4918508;28;20039;-80
2021/01/21 12:40:48;;;;;;;1.98;1.20;;;10.60;78.30;;;;;;4946461;28;20035;-79
2021/01/21 12:43:14;;;;;;;1.40;1.27;;;10.60;78.30;;;;;;4935986;29;20035;-78
2021/01/21 12:45:45;;;;;;;2.10;1.23;;;10.60;78.30;;;;;;4906563;29;20033;-81
2021/01/21 12:48:12;;;;;;;1.30;1.20;;;10.70;78.30;;;;;;4907243;29;20484;-78
2021/01/21 12:50:38;;;;;;;2.03;1.33;;;10.60;78.30;;;;;;4953852;29;20472;-78
2021/01/21 12:53:04;;;;;;;3.47;1.50;;;10.60;78.20;;;;;;4921584;28;20035;-79
2021/01/21 12:55:31;;;;;;;2.45;1.35;;;10.70;78.30;;;;;;4955452;28;20042;-78
2021/01/21 12:57:57;;;;;;;1.98;1.40;;;10.70;78.30;;;;;;4947604;29;20126;-80
2021/01/21 13:00:23;;;;;;;2.90;1.88;;;10.70;78.20;;;;;;4935950;29;20122;-79
2021/01/21 13:02:49;;;;;;;2.45;1.50;;;10.70;78.20;;;;;;4925048;28;20066;-80
2021/01/21 13:05:15;;;;;;;2.15;1.40;;;10.70;78.20;;;;;;4941381;29;20425;-78
2021/01/21 13:07:42;;;;;;;1.30;1.10;;;10.70;78.20;;;;;;4943307;28;20058;-80